createdAt,value
2018-01-30T00:00:11.140Z,96.13
2018-01-30T00:00:51.705Z,96.03
2018-01-30T00:01:32.213Z,96.51
2018-01-30T00:02:12.745Z,96.61
2018-01-30T00:02:53.245Z,95.94
2018-01-30T00:03:33.894Z,95.75
2018-01-30T00:04:14.463Z,95.84
2018-01-30T00:04:55.024Z,95.56
2018-01-30T00:05:36.264Z,96.32
2018-01-30T00:06:16.911Z,96.61
2018-01-30T00:06:57.638Z,96.61
2018-01-30T00:07:38.452Z,96.03
2018-01-30T00:08:19.018Z,95.75
2018-01-30T00:08:59.573Z,96.03
2018-01-30T00:09:40.126Z,95.94
2018-01-30T00:10:20.677Z,95.84
2018-01-30T00:11:01.234Z,95.37
2018-01-30T00:11:41.762Z,95.56
2018-01-30T00:12:22.402Z,96.13
2018-01-30T00:13:02.928Z,96.03
2018-01-30T00:13:43.488Z,96.03
2018-01-30T00:14:24.036Z,96.03
2018-01-30T00:15:04.592Z,95.46
2018-01-30T00:15:45.130Z,95.94
2018-01-30T00:16:25.690Z,95.84
2018-01-30T00:17:06.327Z,96.03
2018-01-30T00:17:46.961Z,96.03
2018-01-30T00:18:27.451Z,95.84
2018-01-30T00:19:08.019Z,96.03
2018-01-30T00:19:49.243Z,95.46
2018-01-30T00:20:29.775Z,95.65
2018-01-30T00:21:10.315Z,95.37
2018-01-30T00:21:50.847Z,95.56
2018-01-30T00:22:31.361Z,94.89
2018-01-30T00:23:11.953Z,95.27
2018-01-30T00:23:52.515Z,96.03
2018-01-30T00:24:33.124Z,95.84
2018-01-30T00:25:13.649Z,95.94
2018-01-30T00:25:54.304Z,95.46
2018-01-30T00:26:34.875Z,96.13
2018-01-30T00:27:15.509Z,95.84
2018-01-30T00:27:56.012Z,95.75
2018-01-30T00:28:36.553Z,95.75
2018-01-30T00:29:17.438Z,96.03
2018-01-30T00:29:58.012Z,96.03
2018-01-30T00:30:38.543Z,95.56
2018-01-30T00:31:19.553Z,95.46
2018-01-30T00:32:00.115Z,95.65
2018-01-30T00:32:40.658Z,94.98
2018-01-30T00:33:21.246Z,95.08
2018-01-30T00:34:01.763Z,95.17
2018-01-30T00:34:42.335Z,94.98
2018-01-30T00:35:22.937Z,94.98
2018-01-30T00:36:03.462Z,95.37
2018-01-30T00:36:43.990Z,95.46
2018-01-30T00:37:24.656Z,95.75
2018-01-30T00:38:05.190Z,95.08
2018-01-30T00:38:45.735Z,95.17
2018-01-30T00:39:26.273Z,95.27
2018-01-30T00:40:06.902Z,95.56
2018-01-30T00:40:47.441Z,96.03
2018-01-30T00:41:27.972Z,95.84
2018-01-30T00:42:08.544Z,95.84
2018-01-30T00:42:49.089Z,95.46
2018-01-30T00:43:29.671Z,94.98
2018-01-30T00:44:10.197Z,95.56
2018-01-30T00:44:50.750Z,95.37
2018-01-30T00:45:31.502Z,94.7
2018-01-30T00:46:11.931Z,94.7
2018-01-30T00:46:52.693Z,94.7
2018-01-30T00:47:33.191Z,94.79
2018-01-30T00:48:13.723Z,95.46
2018-01-30T00:48:54.286Z,94.51
2018-01-30T00:49:34.816Z,95.17
2018-01-30T00:50:15.345Z,95.27
2018-01-30T00:50:55.906Z,95.27
2018-01-30T00:51:36.439Z,94.98
2018-01-30T00:52:16.964Z,94.7
2018-01-30T00:52:57.495Z,95.17
2018-01-30T00:53:38.046Z,94.51
2018-01-30T00:54:18.593Z,94.6
2018-01-30T00:54:59.133Z,94.6
2018-01-30T00:55:39.716Z,94.41
2018-01-30T00:56:20.315Z,94.65
2018-01-30T00:57:00.852Z,94.41
2018-01-30T00:57:41.420Z,93.74
2018-01-30T00:58:21.964Z,94.7
2018-01-30T00:59:02.486Z,95.08
2018-01-30T00:59:43.052Z,94.7
2018-01-30T01:00:23.811Z,95.56
2018-01-30T01:01:04.319Z,96.03
2018-01-30T01:01:44.869Z,96.03
2018-01-30T01:02:25.422Z,95.94
2018-01-30T01:03:05.930Z,96.22
2018-01-30T01:03:46.471Z,96.51
2018-01-30T01:04:27.038Z,96.32
2018-01-30T01:05:07.568Z,96.32
2018-01-30T01:05:48.118Z,96.22
2018-01-30T01:06:28.649Z,96.75
2018-01-30T01:07:09.164Z,96.03
2018-01-30T01:07:49.719Z,96.13
2018-01-30T01:08:30.235Z,96.22
2018-01-30T01:09:10.787Z,96.98
2018-01-30T01:09:51.333Z,96.84
2018-01-30T01:10:31.874Z,96.89
2018-01-30T01:11:12.424Z,96.98
2018-01-30T01:11:52.986Z,96.8
2018-01-30T01:12:33.541Z,96.56
2018-01-30T01:13:14.081Z,96.89
2018-01-30T01:13:54.649Z,97.37
2018-01-30T01:14:35.180Z,96.51
2018-01-30T01:15:15.749Z,96.89
2018-01-30T01:15:56.261Z,96.22
2018-01-30T01:16:36.787Z,96.41
2018-01-30T01:17:17.340Z,96.13
2018-01-30T01:17:57.891Z,96.51
2018-01-30T01:18:38.420Z,96.98
2018-01-30T01:19:18.951Z,96.98
2018-01-30T01:19:59.505Z,96.51
2018-01-30T01:20:40.094Z,96.61
2018-01-30T01:21:20.641Z,97.08
2018-01-30T01:22:01.149Z,96.7
2018-01-30T01:22:41.697Z,96.61
2018-01-30T01:23:22.237Z,97.08
2018-01-30T01:24:02.795Z,97.08
2018-01-30T01:24:43.325Z,97.17
2018-01-30T01:25:23.870Z,97.08
2018-01-30T01:26:04.420Z,97.37
2018-01-30T01:26:44.992Z,97.08
2018-01-30T01:27:25.547Z,96.7
2018-01-30T01:28:06.108Z,96.61
2018-01-30T01:28:46.675Z,97.08
2018-01-30T01:29:27.232Z,97.37
2018-01-30T01:30:07.788Z,97.13
2018-01-30T01:30:48.341Z,97.7
2018-01-30T01:31:28.871Z,97.99
2018-01-30T01:32:09.393Z,97.7
2018-01-30T01:32:49.921Z,98.18
2018-01-30T01:33:30.485Z,97.99
2018-01-30T01:34:11.011Z,98.13
2018-01-30T01:34:51.577Z,98.61
2018-01-30T01:35:32.087Z,97.94
2018-01-30T01:36:12.629Z,98.08
2018-01-30T01:36:53.772Z,98.22
2018-01-30T01:37:34.348Z,98.32
2018-01-30T01:38:14.902Z,98.27
2018-01-30T01:38:55.443Z,98.36
2018-01-30T01:39:36.007Z,98.13
2018-01-30T01:40:16.545Z,98.22
2018-01-30T01:40:57.091Z,98.18
2018-01-30T01:41:37.633Z,98.32
2018-01-30T01:42:18.178Z,98.61
2018-01-30T01:42:58.688Z,98.36
2018-01-30T01:43:39.252Z,98.13
2018-01-30T01:44:19.803Z,97.94
2018-01-30T01:45:00.303Z,98.22
2018-01-30T01:45:40.843Z,98.42
2018-01-30T01:46:21.401Z,97.66
2018-01-30T01:47:01.956Z,97.66
2018-01-30T01:47:42.514Z,97.66
2018-01-30T01:48:23.077Z,97.66
2018-01-30T01:49:03.625Z,98.42
2018-01-30T01:49:44.173Z,98.61
2018-01-30T01:50:24.711Z,98.46
2018-01-30T01:51:05.251Z,98.7
2018-01-30T01:51:45.778Z,98.51
2018-01-30T01:52:26.339Z,98.22
2018-01-30T01:53:06.910Z,98.22
2018-01-30T01:53:47.441Z,98.42
2018-01-30T01:54:28.005Z,98.42
2018-01-30T01:55:08.571Z,98.03
2018-01-30T01:55:49.135Z,97.75
2018-01-30T01:56:29.673Z,97.85
2018-01-30T01:57:10.235Z,97.85
2018-01-30T01:57:50.788Z,97.85
2018-01-30T01:58:31.341Z,97.75
2018-01-30T01:59:11.888Z,98.13
2018-01-30T01:59:52.421Z,98.42
2018-01-30T02:00:32.973Z,98.22
2018-01-30T02:01:13.535Z,97.94
2018-01-30T02:01:54.076Z,97.75
2018-01-30T02:02:34.616Z,97.85
2018-01-30T02:03:15.153Z,97.85
2018-01-30T02:03:55.697Z,97.75
2018-01-30T02:04:36.273Z,97.85
2018-01-30T02:05:16.827Z,97.85
2018-01-30T02:05:57.389Z,97.94
2018-01-30T02:06:37.920Z,98.51
2018-01-30T02:07:18.465Z,98.56
2018-01-30T02:07:58.989Z,99.32
2018-01-30T02:08:39.564Z,99.13
2018-01-30T02:09:20.084Z,98.36
2018-01-30T02:10:00.633Z,98.94
2018-01-30T02:10:41.189Z,99.08
2018-01-30T02:11:21.787Z,98.7
2018-01-30T02:12:02.310Z,98.42
2018-01-30T02:12:42.853Z,98.22
2018-01-30T02:13:23.368Z,98.42
2018-01-30T02:14:03.917Z,98.61
2018-01-30T02:14:44.454Z,98.9
2018-01-30T02:15:25.026Z,98.9
2018-01-30T02:16:05.583Z,98.9
2018-01-30T02:16:46.146Z,98.75
2018-01-30T02:17:26.726Z,98.8
2018-01-30T02:18:07.287Z,98.7
2018-01-30T02:18:47.816Z,98.42
2018-01-30T02:19:28.382Z,97.66
2018-01-30T02:20:08.942Z,97.75
2018-01-30T02:20:49.495Z,97.56
2018-01-30T02:21:30.060Z,97.75
2018-01-30T02:22:10.637Z,97.75
2018-01-30T02:22:51.183Z,97.46
2018-01-30T02:23:31.761Z,97.08
2018-01-30T02:24:12.292Z,97.37
2018-01-30T02:24:52.843Z,96.98
2018-01-30T02:25:33.408Z,97.46
2018-01-30T02:26:13.955Z,98.03
2018-01-30T02:26:54.492Z,97.66
2018-01-30T02:27:35.059Z,97.56
2018-01-30T02:28:15.624Z,97.75
2018-01-30T02:28:56.176Z,97.66
2018-01-30T02:29:36.716Z,97.94
2018-01-30T02:30:17.261Z,98.42
2018-01-30T02:30:57.822Z,97.85
2018-01-30T02:31:38.365Z,98.8
2018-01-30T02:32:18.907Z,98.32
2018-01-30T02:32:59.444Z,98.32
2018-01-30T02:33:39.975Z,97.85
2018-01-30T02:34:20.545Z,97.75
2018-01-30T02:35:01.077Z,98.36
2018-01-30T02:35:41.614Z,98.7
2018-01-30T02:36:22.123Z,98.56
2018-01-30T02:37:02.671Z,99.13
2018-01-30T02:37:43.192Z,99.13
2018-01-30T02:38:23.778Z,98.7
2018-01-30T02:39:04.278Z,98.56
2018-01-30T02:39:44.831Z,98.51
2018-01-30T02:40:25.367Z,98.51
2018-01-30T02:41:05.900Z,98.61
2018-01-30T02:41:46.455Z,98.65
2018-01-30T02:42:27.010Z,98.42
2018-01-30T02:43:07.535Z,98.56
2018-01-30T02:43:48.057Z,98.75
2018-01-30T02:44:28.571Z,98.7
2018-01-30T02:45:09.212Z,98.51
2018-01-30T02:45:49.765Z,98.56
2018-01-30T02:46:30.302Z,98.94
2018-01-30T02:47:10.846Z,98.7
2018-01-30T02:47:51.385Z,98.61
2018-01-30T02:48:31.949Z,98.61
2018-01-30T02:49:12.480Z,98.13
2018-01-30T02:49:53.027Z,98.42
2018-01-30T02:50:33.545Z,98.22
2018-01-30T02:51:14.093Z,98.61
2018-01-30T02:51:54.626Z,98.22
2018-01-30T02:52:35.175Z,98.42
2018-01-30T02:53:15.725Z,97.66
2018-01-30T02:53:56.274Z,97.46
2018-01-30T02:54:36.809Z,97.46
2018-01-30T02:55:17.331Z,97.66
2018-01-30T02:55:57.873Z,97.85
2018-01-30T02:56:38.377Z,98.32
2018-01-30T02:57:18.921Z,98.36
2018-01-30T02:57:59.475Z,97.99
2018-01-30T02:58:40.045Z,98.61
2018-01-30T02:59:20.596Z,98.18
2018-01-30T03:00:01.182Z,98.22
2018-01-30T03:00:41.706Z,98.03
2018-01-30T03:01:22.244Z,98.22
2018-01-30T03:02:02.778Z,97.66
2018-01-30T03:02:43.330Z,97.66
2018-01-30T03:03:23.881Z,98.42
2018-01-30T03:04:04.396Z,97.66
2018-01-30T03:04:44.975Z,97.46
2018-01-30T03:05:25.485Z,98.13
2018-01-30T03:06:06.028Z,97.66
2018-01-30T03:06:46.580Z,98.61
2018-01-30T03:07:27.121Z,98.22
2018-01-30T03:08:07.649Z,98.42
2018-01-30T03:08:48.187Z,98.22
2018-01-30T03:09:28.730Z,97.46
2018-01-30T03:10:09.283Z,98.03
2018-01-30T03:10:49.815Z,98.18
2018-01-30T03:11:30.392Z,98.18
2018-01-30T03:12:10.957Z,98.8
2018-01-30T03:12:51.522Z,98.22
2018-01-30T03:13:32.078Z,98.03
2018-01-30T03:14:12.635Z,98.13
2018-01-30T03:14:53.193Z,98.32
2018-01-30T03:15:33.730Z,98.22
2018-01-30T03:16:14.276Z,98.22
2018-01-30T03:16:54.821Z,98.32
2018-01-30T03:17:35.391Z,97.75
2018-01-30T03:18:15.938Z,97.75
2018-01-30T03:18:56.496Z,97.75
2018-01-30T03:19:37.036Z,97.94
2018-01-30T03:20:17.603Z,97.75
2018-01-30T03:20:58.173Z,97.94
2018-01-30T03:21:38.716Z,97.94
2018-01-30T03:22:19.276Z,97.46
2018-01-30T03:22:59.823Z,98.03
2018-01-30T03:23:40.386Z,97.46
2018-01-30T03:24:20.921Z,96.98
2018-01-30T03:25:01.457Z,97.27
2018-01-30T03:25:42.032Z,97.17
2018-01-30T03:26:22.553Z,97.27
2018-01-30T03:27:03.104Z,97.17
2018-01-30T03:27:43.671Z,96.98
2018-01-30T03:28:24.235Z,96.89
2018-01-30T03:29:04.795Z,97.46
2018-01-30T03:29:45.368Z,97.27
2018-01-30T03:30:25.920Z,97.08
2018-01-30T03:31:06.496Z,97.27
2018-01-30T03:31:47.064Z,97.27
2018-01-30T03:32:27.619Z,97.94
2018-01-30T03:33:08.175Z,97.75
2018-01-30T03:33:48.733Z,97.66
2018-01-30T03:34:29.281Z,97.17
2018-01-30T03:35:09.885Z,96.84
2018-01-30T03:35:50.420Z,96.46
2018-01-30T03:36:30.946Z,96.75
2018-01-30T03:37:11.504Z,96.94
2018-01-30T03:37:52.066Z,96.94
2018-01-30T03:38:32.625Z,96.7
2018-01-30T03:39:13.193Z,97.37
2018-01-30T03:39:53.753Z,97.94
2018-01-30T03:40:34.320Z,97.66
2018-01-30T03:41:14.877Z,97.56
2018-01-30T03:41:55.451Z,97.75
2018-01-30T03:42:36.003Z,98.61
2018-01-30T03:43:16.564Z,98.22
2018-01-30T03:43:57.124Z,98.22
2018-01-30T03:44:37.688Z,97.85
2018-01-30T03:45:18.246Z,97.85
2018-01-30T03:45:58.806Z,97.94
2018-01-30T03:46:39.374Z,98.22
2018-01-30T03:47:19.928Z,98.42
2018-01-30T03:48:00.487Z,98.42
2018-01-30T03:48:41.042Z,98.42
2018-01-30T03:49:21.632Z,98.13
2018-01-30T03:50:02.187Z,98.22
2018-01-30T03:50:42.741Z,98.22
2018-01-30T03:51:23.295Z,98.22
2018-01-30T03:52:03.848Z,98.42
2018-01-30T03:52:44.366Z,98.9
2018-01-30T03:53:24.901Z,99.08
2018-01-30T03:54:05.461Z,99.18
2018-01-30T03:54:46.034Z,99.18
2018-01-30T03:55:26.603Z,98.51
2018-01-30T03:56:07.168Z,98.8
2018-01-30T03:56:47.705Z,98.7
2018-01-30T03:57:28.268Z,98.42
2018-01-30T03:58:08.827Z,98.61
2018-01-30T03:58:49.385Z,98.8
2018-01-30T03:59:29.910Z,98.22
2018-01-30T04:00:10.459Z,98.22
2018-01-30T04:00:51.021Z,98.61
2018-01-30T04:01:31.617Z,98.32
2018-01-30T04:02:12.147Z,98.42
2018-01-30T04:02:52.701Z,97.75
2018-01-30T04:03:33.247Z,97.66
2018-01-30T04:04:13.797Z,98.22
2018-01-30T04:04:54.301Z,98.03
2018-01-30T04:05:34.831Z,97.94
2018-01-30T04:06:15.391Z,98.03
2018-01-30T04:06:55.915Z,97.75
2018-01-30T04:07:36.455Z,97.85
2018-01-30T04:08:17.009Z,98.03
2018-01-30T04:08:57.577Z,97.94
2018-01-30T04:09:38.146Z,98.03
2018-01-30T04:10:18.616Z,97.85
2018-01-30T04:10:59.153Z,97.75
2018-01-30T04:11:39.715Z,97.85
2018-01-30T04:12:20.273Z,97.66
2018-01-30T04:13:00.844Z,97.66
2018-01-30T04:13:41.396Z,97.46
2018-01-30T04:14:21.971Z,97.37
2018-01-30T04:15:02.519Z,97.08
2018-01-30T04:15:43.094Z,97.46
2018-01-30T04:16:23.657Z,97.37
2018-01-30T04:17:04.197Z,97.66
2018-01-30T04:17:44.754Z,97.85
2018-01-30T04:18:25.320Z,98.03
2018-01-30T04:19:05.882Z,97.27
2018-01-30T04:19:46.449Z,96.89
2018-01-30T04:20:27.015Z,97.08
2018-01-30T04:21:07.576Z,96.98
2018-01-30T04:21:48.136Z,97.37
2018-01-30T04:22:28.690Z,96.66
2018-01-30T04:23:09.244Z,96.8
2018-01-30T04:23:49.804Z,96.8
2018-01-30T04:24:30.345Z,97.46
2018-01-30T04:25:10.884Z,97.08
2018-01-30T04:25:51.429Z,97.17
2018-01-30T04:26:32.001Z,97.27
2018-01-30T04:27:12.472Z,97.08
2018-01-30T04:27:53.003Z,97.17
2018-01-30T04:28:33.550Z,97.27
2018-01-30T04:29:14.078Z,97.27
2018-01-30T04:29:54.603Z,97.08
2018-01-30T04:30:35.142Z,96.94
2018-01-30T04:31:15.726Z,96.84
2018-01-30T04:31:56.255Z,96.66
2018-01-30T04:32:36.809Z,96.66
2018-01-30T04:33:17.349Z,96.46
2018-01-30T04:33:57.894Z,96.27
2018-01-30T04:34:38.459Z,95.98
2018-01-30T04:35:19.004Z,95.98
2018-01-30T04:35:59.560Z,95.98
2018-01-30T04:36:40.148Z,95.51
2018-01-30T04:37:20.633Z,95.89
2018-01-30T04:38:01.207Z,96.08
2018-01-30T04:38:41.742Z,96.37
2018-01-30T04:39:22.300Z,96.37
2018-01-30T04:40:02.920Z,96.27
2018-01-30T04:40:43.520Z,95.98
2018-01-30T04:41:24.086Z,95.98
2018-01-30T04:42:04.619Z,95.32
2018-01-30T04:42:45.148Z,95.12
2018-01-30T04:43:25.680Z,95.51
2018-01-30T04:44:06.213Z,94.84
2018-01-30T04:44:46.745Z,94.65
2018-01-30T04:45:27.308Z,94.84
2018-01-30T04:46:07.867Z,94.74
2018-01-30T04:46:48.442Z,94.74
2018-01-30T04:47:29.072Z,94.93
2018-01-30T04:48:09.520Z,94.65
2018-01-30T04:48:50.043Z,94.46
2018-01-30T04:49:30.647Z,94.65
2018-01-30T04:50:11.245Z,94.74
2018-01-30T04:50:51.813Z,94.74
2018-01-30T04:51:32.363Z,94.56
2018-01-30T04:52:12.928Z,94.36
2018-01-30T04:52:53.487Z,94.65
2018-01-30T04:53:34.064Z,94.56
2018-01-30T04:54:14.616Z,93.88
2018-01-30T04:54:55.163Z,94.65
2018-01-30T04:55:35.683Z,94.46
2018-01-30T04:56:16.245Z,94.74
2018-01-30T04:56:56.781Z,94.74
2018-01-30T04:57:37.396Z,94.56
2018-01-30T04:58:17.854Z,94.84
2018-01-30T04:58:58.386Z,94.84
2018-01-30T04:59:38.954Z,94.84
2018-01-30T05:00:19.488Z,95.51
2018-01-30T05:01:00.061Z,95.03
2018-01-30T05:01:40.626Z,95.41
2018-01-30T05:02:21.134Z,94.74
2018-01-30T05:03:01.691Z,95.61
2018-01-30T05:03:42.216Z,95.22
2018-01-30T05:04:22.784Z,95.32
2018-01-30T05:05:03.343Z,95.41
2018-01-30T05:05:43.879Z,95.32
2018-01-30T05:06:24.419Z,95.03
2018-01-30T05:07:04.950Z,94.74
2018-01-30T05:07:45.482Z,94.46
2018-01-30T05:08:26.033Z,95.32
2018-01-30T05:09:06.538Z,95.03
2018-01-30T05:09:47.044Z,95.32
2018-01-30T05:10:27.623Z,95.03
2018-01-30T05:11:08.141Z,95.7
2018-01-30T05:11:48.684Z,95.12
2018-01-30T05:12:29.227Z,95.12
2018-01-30T05:13:09.771Z,95.22
2018-01-30T05:13:50.319Z,95.41
2018-01-30T05:14:30.817Z,94.65
2018-01-30T05:15:11.330Z,95.03
2018-01-30T05:15:51.865Z,94.36
2018-01-30T05:16:32.408Z,94.56
2018-01-30T05:17:12.966Z,94.56
2018-01-30T05:17:53.513Z,94.65
2018-01-30T05:18:34.038Z,94.56
2018-01-30T05:19:14.591Z,94.65
2018-01-30T05:19:55.096Z,95.32
2018-01-30T05:20:35.645Z,94.74
2018-01-30T05:21:16.172Z,94.84
2018-01-30T05:21:56.741Z,95.12
2018-01-30T05:22:37.266Z,95.22
2018-01-30T05:23:17.788Z,95.46
2018-01-30T05:23:58.344Z,96.17
2018-01-30T05:24:38.899Z,95.51
2018-01-30T05:25:19.465Z,95.41
2018-01-30T05:25:59.962Z,95.12
2018-01-30T05:26:40.519Z,95.61
2018-01-30T05:27:21.035Z,95.51
2018-01-30T05:28:01.594Z,94.74
2018-01-30T05:28:42.148Z,94.74
2018-01-30T05:29:22.695Z,94.46
2018-01-30T05:30:03.234Z,94.56
2018-01-30T05:30:43.795Z,94.56
2018-01-30T05:31:24.365Z,94.56
2018-01-30T05:32:04.943Z,94.84
2018-01-30T05:32:45.488Z,95.12
2018-01-30T05:33:26.024Z,95.51
2018-01-30T05:34:06.597Z,95.03
2018-01-30T05:34:47.150Z,95.32
2018-01-30T05:35:27.713Z,94.56
2018-01-30T05:36:08.248Z,95.22
2018-01-30T05:36:48.774Z,95.22
2018-01-30T05:37:29.320Z,95.41
2018-01-30T05:38:09.878Z,95.12
2018-01-30T05:38:50.433Z,95.51
2018-01-30T05:39:30.976Z,95.03
2018-01-30T05:40:11.511Z,95.51
2018-01-30T05:40:52.132Z,94.93
2018-01-30T05:41:32.617Z,95.03
2018-01-30T05:42:13.175Z,95.32
2018-01-30T05:42:53.738Z,95.12
2018-01-30T05:43:34.282Z,95.22
2018-01-30T05:44:14.883Z,95.03
2018-01-30T05:44:55.431Z,95.32
2018-01-30T05:45:35.981Z,95.22
2018-01-30T05:46:16.551Z,95.32
2018-01-30T05:46:57.125Z,94.74
2018-01-30T05:47:37.661Z,94.84
2018-01-30T05:48:18.231Z,95.32
2018-01-30T05:48:58.797Z,94.56
2018-01-30T05:49:39.371Z,94.56
2018-01-30T05:50:19.920Z,94.74
2018-01-30T05:51:00.491Z,93.79
2018-01-30T05:51:41.091Z,93.98
2018-01-30T05:52:21.648Z,94.22
2018-01-30T05:53:02.197Z,93.98
2018-01-30T05:53:42.740Z,94.17
2018-01-30T05:54:23.303Z,93.6
2018-01-30T05:55:03.855Z,93.88
2018-01-30T05:55:44.408Z,93.51
2018-01-30T05:56:24.932Z,93.98
2018-01-30T05:57:05.489Z,93.65
2018-01-30T05:57:46.042Z,93.93
2018-01-30T05:58:26.612Z,93.26
2018-01-30T05:59:07.196Z,93.74
2018-01-30T05:59:47.744Z,93.26
2018-01-30T06:00:28.295Z,93.36
2018-01-30T06:01:08.845Z,92.69
2018-01-30T06:01:49.404Z,93.36
2018-01-30T06:02:30.018Z,93.26
2018-01-30T06:03:10.571Z,93.55
2018-01-30T06:03:51.128Z,93.31
2018-01-30T06:04:31.690Z,92.83
2018-01-30T06:05:12.249Z,93.17
2018-01-30T06:05:52.775Z,93.17
2018-01-30T06:06:33.423Z,93.17
2018-01-30T06:07:14.177Z,92.79
2018-01-30T06:07:54.745Z,93.46
2018-01-30T06:08:35.279Z,93.55
2018-01-30T06:09:15.831Z,93.36
2018-01-30T06:09:56.347Z,93.31
2018-01-30T06:10:36.869Z,93.88
2018-01-30T06:11:17.447Z,94.17
2018-01-30T06:11:58.021Z,93.17
2018-01-30T06:12:38.473Z,93.26
2018-01-30T06:13:20.330Z,93.26
2018-01-30T06:14:00.835Z,93.36
2018-01-30T06:14:41.422Z,93.26
2018-01-30T06:15:21.935Z,92.97
2018-01-30T06:16:02.495Z,93.26
2018-01-30T06:16:43.054Z,93.84
2018-01-30T06:17:23.605Z,92.97
2018-01-30T06:18:04.170Z,93.31
2018-01-30T06:18:44.728Z,93.17
2018-01-30T06:19:25.312Z,92.97
2018-01-30T06:20:05.832Z,92.69
2018-01-30T06:20:46.389Z,93.36
2018-01-30T06:21:26.934Z,93.84
2018-01-30T06:22:07.528Z,93.93
2018-01-30T06:22:48.040Z,94.12
2018-01-30T06:23:28.659Z,93.93
2018-01-30T06:24:09.202Z,94.03
2018-01-30T06:24:51.604Z,94.22
2018-01-30T06:25:32.149Z,94.89
2018-01-30T06:26:12.741Z,94.7
2018-01-30T06:26:53.323Z,94.6
2018-01-30T06:27:33.806Z,94.6
2018-01-30T06:28:14.413Z,94.7
2018-01-30T06:28:54.961Z,94.79
2018-01-30T06:29:35.518Z,94.22
2018-01-30T06:30:16.081Z,94.79
2018-01-30T06:30:56.685Z,95.46
2018-01-30T06:31:37.256Z,95.46
2018-01-30T06:32:17.789Z,96.32
2018-01-30T06:32:58.335Z,96.89
2018-01-30T06:33:38.882Z,96.8
2018-01-30T06:34:19.507Z,96.42
2018-01-30T06:35:00.073Z,95.75
2018-01-30T06:35:40.794Z,96.03
2018-01-30T06:36:21.651Z,95.94
2018-01-30T06:37:02.310Z,94.51
2018-01-30T06:37:42.882Z,94.89
2018-01-30T06:38:23.467Z,93.36
2018-01-30T06:39:04.009Z,93.26
2018-01-30T06:39:44.949Z,94.79
2018-01-30T06:40:25.507Z,95.27
2018-01-30T06:41:06.461Z,95.56
2018-01-30T06:41:46.723Z,94.6
2018-01-30T06:42:27.298Z,93.26
2018-01-30T06:43:07.940Z,90.21
2018-01-30T06:43:48.477Z,88.2
2018-01-30T06:44:29.041Z,88.16
2018-01-30T06:45:09.983Z,88.01
2018-01-30T06:45:50.532Z,86.82
2018-01-30T06:46:31.332Z,88.11
2018-01-30T06:47:12.015Z,87.54
2018-01-30T06:47:52.581Z,84.44
2018-01-30T06:48:33.113Z,82.63
2018-01-30T06:49:13.672Z,83.48
2018-01-30T06:49:54.222Z,83.48
2018-01-30T06:50:34.819Z,83.62
2018-01-30T06:51:15.353Z,84.58
2018-01-30T06:51:55.897Z,84.25
2018-01-30T06:52:36.525Z,83.29
2018-01-30T06:53:17.044Z,83.91
2018-01-30T06:53:57.606Z,84.1
2018-01-30T06:54:38.140Z,82.19
2018-01-30T06:55:18.678Z,82.43
2018-01-30T06:55:59.280Z,81.2
2018-01-30T06:56:39.846Z,80.43
2018-01-30T06:57:20.361Z,80.15
2018-01-30T06:58:00.925Z,80.05
2018-01-30T06:58:41.479Z,80.81
2018-01-30T06:59:21.986Z,81.1
2018-01-30T07:00:02.527Z,80.91
2018-01-30T07:00:43.035Z,81.01
2018-01-30T07:01:23.562Z,81.77
2018-01-30T07:02:04.109Z,81.1
2018-01-30T07:02:44.679Z,80.43
2018-01-30T07:03:25.235Z,79.96
2018-01-30T07:04:05.770Z,79.28
2018-01-30T07:04:46.288Z,80.91
2018-01-30T07:05:26.828Z,82.06
2018-01-30T07:06:07.481Z,82.82
2018-01-30T07:06:48.032Z,81.48
2018-01-30T07:07:28.625Z,81.2
2018-01-30T07:08:09.928Z,81.48
2018-01-30T07:08:50.663Z,81.29
2018-01-30T07:09:31.183Z,80.05
2018-01-30T07:10:11.843Z,80.15
2018-01-30T07:10:52.437Z,81.77
2018-01-30T07:11:33.866Z,84.63
2018-01-30T07:12:14.148Z,86.06
2018-01-30T07:12:54.790Z,86.25
2018-01-30T07:13:35.531Z,88.16
2018-01-30T07:14:16.247Z,99.99
2018-01-30T07:14:57.190Z,98.94
2018-01-30T07:15:37.853Z,91.98
2018-01-30T07:16:18.432Z,91.6
2018-01-30T07:16:58.975Z,99.99
2018-01-30T07:17:39.538Z,99.99
2018-01-30T07:18:20.273Z,90.45
2018-01-30T07:19:00.853Z,86.82
2018-01-30T07:19:42.154Z,85.91
2018-01-30T07:20:22.931Z,85.53
2018-01-30T07:21:03.473Z,85.82
2018-01-30T07:21:44.001Z,85.05
2018-01-30T07:22:24.565Z,84
2018-01-30T07:23:05.108Z,93.88
2018-01-30T07:23:45.788Z,99.99
2018-01-30T07:24:26.343Z,99.99
2018-01-30T07:25:06.956Z,99.99
2018-01-30T07:25:47.493Z,99.99
2018-01-30T07:26:28.146Z,99.99
2018-01-30T07:27:08.720Z,99.99
2018-01-30T07:27:49.260Z,99.99
2018-01-30T07:28:29.824Z,99.99
2018-01-30T07:29:10.314Z,99.99
2018-01-30T07:29:50.880Z,99.99
2018-01-30T07:30:31.402Z,99.99
2018-01-30T07:31:12.088Z,99.99
2018-01-30T07:31:52.623Z,99.99
2018-01-30T07:32:33.196Z,99.99
2018-01-30T07:33:13.762Z,96.17
2018-01-30T07:33:54.322Z,90.06
2018-01-30T07:34:34.892Z,86.91
2018-01-30T07:35:15.431Z,86.34
2018-01-30T07:35:55.968Z,85.24
2018-01-30T07:36:36.546Z,85.42
2018-01-30T07:37:17.105Z,85.14
2018-01-30T07:37:57.630Z,95.07
2018-01-30T07:38:38.183Z,98.8
2018-01-30T07:39:18.708Z,98.33
2018-01-30T07:39:59.253Z,91.3
2018-01-30T07:40:39.793Z,84.33
2018-01-30T07:41:20.353Z,90.92
2018-01-30T07:42:00.885Z,93.21
2018-01-30T07:42:41.417Z,89.78
2018-01-30T07:43:21.948Z,93.36
2018-01-30T07:44:02.583Z,95.03
2018-01-30T07:44:43.055Z,89.87
2018-01-30T07:45:23.594Z,85.9
2018-01-30T07:46:04.145Z,84.66
2018-01-30T07:46:44.654Z,83.04
2018-01-30T07:47:25.215Z,82.84
2018-01-30T07:48:05.735Z,81.99
2018-01-30T07:48:46.347Z,81.7
2018-01-30T07:49:26.821Z,81.13
2018-01-30T07:50:07.373Z,81.03
2018-01-30T07:50:47.922Z,80.84
2018-01-30T07:51:28.521Z,81.03
2018-01-30T07:52:09.058Z,80.17
2018-01-30T07:52:49.718Z,79.85
2018-01-30T07:53:30.205Z,78.7
2018-01-30T07:54:10.784Z,79.02
2018-01-30T07:54:51.308Z,79.41
2018-01-30T07:55:31.853Z,78.74
2018-01-30T07:56:12.394Z,78.74
2018-01-30T07:56:52.932Z,79.12
2018-01-30T07:57:33.493Z,79.12
2018-01-30T07:58:14.069Z,77.5
2018-01-30T07:58:54.619Z,77.5
2018-01-30T07:59:35.218Z,76.92
2018-01-30T08:00:15.737Z,77.69
2018-01-30T08:00:56.287Z,79.12
2018-01-30T08:01:36.826Z,78.74
2018-01-30T08:02:17.368Z,78.16
2018-01-30T08:02:57.927Z,78.07
2018-01-30T08:03:38.537Z,79.12
2018-01-30T08:04:19.051Z,81.32
2018-01-30T08:04:59.642Z,91.25
2018-01-30T08:05:40.154Z,90.88
2018-01-30T08:06:20.705Z,93.02
2018-01-30T08:07:01.220Z,94.93
2018-01-30T08:07:41.759Z,97.52
2018-01-30T08:08:22.305Z,93.79
2018-01-30T08:09:02.861Z,92.45
2018-01-30T08:09:43.397Z,99.99
2018-01-30T08:10:23.996Z,99.99
2018-01-30T08:11:04.524Z,99.99
2018-01-30T08:11:45.065Z,98.18
2018-01-30T08:12:25.604Z,98.38
2018-01-30T08:13:06.202Z,90.3
2018-01-30T08:13:46.769Z,85.38
2018-01-30T08:14:27.285Z,83.51
2018-01-30T08:15:07.955Z,81.99
2018-01-30T08:15:48.496Z,80.07
2018-01-30T08:16:29.044Z,80.65
2018-01-30T08:17:09.596Z,82.56
2018-01-30T08:17:50.175Z,90.97
2018-01-30T08:18:30.720Z,95.56
2018-01-30T08:19:11.260Z,99.99
2018-01-30T08:19:51.823Z,99.99
2018-01-30T08:20:32.342Z,99.99
2018-01-30T08:21:12.899Z,99.99
2018-01-30T08:21:53.424Z,99.99
2018-01-30T08:22:33.988Z,99.99
2018-01-30T08:23:14.529Z,99.99
2018-01-30T08:23:55.075Z,99.99
2018-01-30T08:24:35.608Z,98.95
2018-01-30T08:25:16.185Z,95.98
2018-01-30T08:25:56.688Z,97.52
2018-01-30T08:26:37.246Z,96.37
2018-01-30T08:27:17.771Z,87.09
2018-01-30T08:27:58.369Z,82.41
2018-01-30T08:28:38.924Z,81.65
2018-01-30T08:29:19.578Z,81.26
2018-01-30T08:30:00.110Z,82.12
2018-01-30T08:30:40.678Z,81.36
2018-01-30T08:31:21.408Z,80.98
2018-01-30T08:32:01.958Z,80.4
2018-01-30T08:32:42.599Z,79.16
2018-01-30T08:33:23.291Z,78.97
2018-01-30T08:34:03.867Z,78.2
2018-01-30T08:34:44.419Z,77.44
2018-01-30T08:35:24.976Z,81.55
2018-01-30T08:36:05.519Z,85.28
2018-01-30T08:36:46.019Z,85.85
2018-01-30T08:37:26.551Z,88.15
2018-01-30T08:38:07.174Z,87.48
2018-01-30T08:38:47.800Z,86.33
2018-01-30T08:39:28.474Z,86.61
2018-01-30T08:40:08.861Z,82.7
2018-01-30T08:40:49.428Z,80.4
2018-01-30T08:41:29.984Z,77.92
2018-01-30T08:42:10.549Z,76.96
2018-01-30T08:42:51.089Z,77.63
2018-01-30T08:43:31.733Z,77.63